Allport, Pennsylvania
Current Conditions -  °F | °C
As of 10:54 AM on Friday 24 Oct 2014 (Local Time) from KFIG Reporting Station
Clear Clear  
Wind Chill: 53°   Ceiling: Unl
Heat Index: 53°   Visibility: 10mi
Dew Point: 37°   Wind: 8mph
Humidity: 55%   Direction: 300°WNW
Pressure: 30.03"   Gusts: NA
Location:  40.96°N, 78.2°W
Report Text: KFIG 241454Z AUTO 30007KT 10SM CLR 12/03 A3003 RMK AO2 SLP172 T01170028 58001
Loading
Personal Weather Stations






























Interactive Weather Map
Tropical Storm Tracking
New forecast layout! Learn more

10-Day Weather Forecast

Advertisements
Track Severe Weather on mobile